Time;durP1;ratioP1;P1;durP2;ratioP2;P2;SDS_P1;SDS_P2;PMS_P1;PMS_P2;Temp;Humidity;BMP_temperature;BMP_pressure;BME280_temperature;BME280_humidity;BME280_pressure;Samples;Min_cycle;Max_cycle;Signal;HPM_P1;HPM_P2
2023/02/04 00:02:18;;;;;;;;;;;;;;;17.52;62.04;101490.22;2266334;78;50078;-72
2023/02/04 00:05:20;;;;;;;;;;;;;;;17.56;61.94;101500.93;2267619;77;50432;-72
2023/02/04 00:08:22;;;;;;;;;;;;;;;17.67;61.61;101507.03;2266773;77;50482;-73
2023/02/04 00:11:24;;;;;;;;;;;;;;;17.71;61.50;101521.29;2266815;78;52293;-72
2023/02/04 00:14:25;;;;;;;;;;;;;;;17.76;61.33;101532.88;2249613;78;51000;-72
2023/02/04 00:17:27;;;;;;;;;;;;;;;17.73;61.29;101550.59;2274177;77;50231;-73
2023/02/04 00:20:28;;;;;;;;;;;;;;;17.68;61.35;101553.73;2266920;78;50288;-71
2023/02/04 00:23:30;;;;;;;;;;;;;;;17.63;61.46;101566.23;2243480;78;50363;-72
2023/02/04 00:26:31;;;;;;;;;;;;;;;17.59;61.62;101575.55;2255812;77;51678;-72
2023/02/04 00:29:33;;;;;;;;;;;;;;;17.57;61.68;101585.59;2279196;77;51506;-71
2023/02/04 00:32:35;;;;;;;;;;;;;;;17.56;61.79;101585.73;2291508;77;50752;-71
2023/02/04 00:35:36;;;;;;;;;;;;;;;17.49;61.92;101588.66;2289009;77;50408;-71
2023/02/04 00:38:38;;;;;;;;;;;;;;;17.50;61.92;101596.55;2267106;78;52764;-74
2023/02/04 00:41:39;;;;;;;;;;;;;;;17.51;61.76;101618.29;2267679;77;51489;-72
2023/02/04 00:44:41;;;;;;;;;;;;;;;17.54;61.63;101640.73;2284092;77;51416;-72
2023/02/04 00:47:42;;;;;;;;;;;;;;;17.67;61.26;101653.73;2261901;77;50557;-73
2023/02/04 00:50:44;;;;;;;;;;;;;;;17.68;61.20;101672.00;2256047;77;51080;-72
2023/02/04 00:53:46;;;;;;;;;;;;;;;17.72;61.01;101684.06;2280714;77;51308;-72
2023/02/04 00:56:47;;;;;;;;;;;;;;;17.70;61.06;101702.97;2282296;77;50371;-71
2023/02/04 00:59:49;;;;;;;;;;;;;;;17.66;61.10;101712.28;2266950;78;50393;-71
2023/02/04 01:02:52;;;;;;;;;;;;;;;17.62;61.16;101729.16;2266794;78;50418;-72
2023/02/04 01:05:54;;;;;;;;;;;;;;;17.58;61.29;101738.46;2266872;78;50481;-72
2023/02/04 01:08:55;;;;;;;;;;;;;;;17.54;61.41;101746.93;2267091;77;50389;-72
2023/02/04 01:11:57;;;;;;;;;;;;;;;17.50;61.50;101766.47;2267038;77;50161;-72
2023/02/04 01:14:58;;;;;;;;;;;;;;;17.46;61.65;101778.45;2286045;77;50091;-73
2023/02/04 01:18:00;;;;;;;;;;;;;;;17.48;61.59;101779.65;2265747;76;50726;-72
2023/02/04 01:21:01;;;;;;;;;;;;;;;17.48;61.53;101784.50;2266863;78;51465;-72
2023/02/04 01:24:03;;;;;;;;;;;;;;;17.52;61.28;101790.38;2266777;78;51460;-73
2023/02/04 01:27:05;;;;;;;;;;;;;;;17.64;61.00;101807.44;2278652;77;52332;-71
2023/02/04 01:30:06;;;;;;;;;;;;;;;17.68;60.91;101803.98;2304945;77;50411;-72
2023/02/04 01:33:08;;;;;;;;;;;;;;;17.68;60.88;101825.41;2280725;77;51466;-71
2023/02/04 01:36:10;;;;;;;;;;;;;;;17.69;60.78;101842.30;2304912;77;51539;-71
2023/02/04 01:39:12;;;;;;;;;;;;;;;17.69;60.78;101846.31;2223392;78;52255;-72
2023/02/04 01:42:14;;;;;;;;;;;;;;;17.61;60.86;101853.23;2282743;77;50668;-72
2023/02/04 01:45:15;;;;;;;;;;;;;;;17.58;61.01;101861.57;2253946;78;52232;-71
2023/02/04 01:48:19;;;;;;;;;;;;;;;17.57;61.16;101870.60;2248216;79;50727;-73
2023/02/04 01:51:25;;;;;;;;;;;;;;;17.51;61.28;101873.84;2302179;76;51658;-72
2023/02/04 01:54:26;;;;;;;;;;;;;;;17.45;61.49;101882.47;2304558;77;22465;-72
2023/02/04 01:57:27;;;;;;;;;;;;;;;17.47;61.39;101883.64;2295331;77;50712;-74
2023/02/04 02:00:29;;;;;;;;;;;;;;;17.48;61.29;101908.92;2266852;78;51575;-74
2023/02/04 02:03:31;;;;;;;;;;;;;;;17.55;61.10;101916.73;2291205;76;49587;-74
2023/02/04 02:06:33;;;;;;;;;;;;;;;17.62;60.97;101933.03;2266783;78;50786;-73
2023/02/04 02:09:36;;;;;;;;;;;;;;;17.63;60.83;101947.63;2267377;77;50214;-73
2023/02/04 02:12:38;;;;;;;;;;;;;;;17.67;60.69;101956.20;2273272;77;50327;-73
2023/02/04 02:15:39;;;;;;;;;;;;;;;17.64;60.67;101973.39;2270040;76;51665;-73
2023/02/04 02:18:41;;;;;;;;;;;;;;;17.63;60.76;101973.55;2289545;77;51558;-73
2023/02/04 02:21:44;;;;;;;;;;;;;;;17.60;60.83;101980.53;2302387;77;52380;-74
2023/02/04 02:24:46;;;;;;;;;;;;;;;17.58;60.92;101988.70;2297785;77;51721;-74
2023/02/04 02:27:47;;;;;;;;;;;;;;;17.55;61.00;101994.34;2277750;77;50634;-72
2023/02/04 02:30:49;;;;;;;;;;;;;;;17.50;61.16;102007.30;2302365;77;51478;-74
2023/02/04 02:33:50;;;;;;;;;;;;;;;17.45;61.31;102014.92;2301262;77;50384;-73
2023/02/04 02:36:52;;;;;;;;;;;;;;;17.46;61.30;102027.30;2304325;77;50375;-73
2023/02/04 02:39:54;;;;;;;;;;;;;;;17.48;61.13;102025.33;2243938;78;50108;-74
2023/02/04 02:42:55;;;;;;;;;;;;;;;17.53;60.99;102028.42;2270909;77;50709;-74
2023/02/04 02:45:58;;;;;;;;;;;;;;;17.61;60.79;102042.44;2283970;77;51523;-73
2023/02/04 02:49:00;;;;;;;;;;;;;;;17.66;60.59;102050.05;2291719;77;51577;-73
2023/02/04 02:52:01;;;;;;;;;;;;;;;17.66;60.55;102059.41;2303428;77;50995;-73
2023/02/04 02:55:03;;;;;;;;;;;;;;;17.66;60.54;102068.78;2300340;77;50377;-73
2023/02/04 02:58:06;;;;;;;;;;;;;;;17.62;60.62;102077.56;2302393;77;51526;-74
2023/02/04 03:01:08;;;;;;;;;;;;;;;17.57;60.72;102085.17;2304665;77;51603;-73
2023/02/04 03:04:09;;;;;;;;;;;;;;;17.56;60.83;102091.53;2278173;77;52291;-74
2023/02/04 03:07:11;;;;;;;;;;;;;;;17.54;60.87;102091.66;2299121;77;51584;-74
2023/02/04 03:10:13;;;;;;;;;;;;;;;17.47;61.00;102101.25;2266957;77;51474;-74
2023/02/04 03:13:14;;;;;;;;;;;;;;;17.45;61.14;102107.23;2274459;77;51604;-74
2023/02/04 03:16:16;;;;;;;;;;;;;;;17.44;61.10;102107.36;2269202;76;52569;-73
2023/02/04 03:19:18;;;;;;;;;;;;;;;17.46;61.00;102119.61;2267395;77;51551;-73
2023/02/04 03:22:19;;;;;;;;;;;;;;;17.51;60.84;102117.36;2266712;78;51391;-73
2023/02/04 03:25:23;;;;;;;;;;;;;;;17.63;60.56;102123.44;2274122;77;51435;-74
2023/02/04 03:28:26;;;;;;;;;;;;;;;17.62;60.48;102142.68;2286632;76;22380;-73
2023/02/04 03:31:27;;;;;;;;;;;;;;;17.66;60.40;102157.11;2266991;77;50510;-74
2023/02/04 03:34:29;;;;;;;;;;;;;;;17.65;60.37;102165.64;2266614;78;51440;-72
2023/02/04 03:37:30;;;;;;;;;;;;;;;17.62;60.39;102174.80;2268835;77;50658;-72
2023/02/04 03:40:32;;;;;;;;;;;;;;;17.58;60.51;102178.72;2267112;78;54296;-73
2023/02/04 03:43:34;;;;;;;;;;;;;;;17.55;60.63;102187.04;2278306;77;51426;-73
2023/02/04 03:46:35;;;;;;;;;;;;;;;17.51;60.71;102197.66;2276931;76;50247;-72
2023/02/04 03:49:37;;;;;;;;;;;;;;;17.48;60.86;102209.14;2264435;78;49888;-73
2023/02/04 03:52:38;;;;;;;;;;;;;;;17.43;61.00;102233.63;2268017;78;50093;-73
2023/02/04 03:55:40;;;;;;;;;;;;;;;17.42;61.00;102233.28;2280066;77;50397;-73
2023/02/04 03:58:42;;;;;;;;;;;;;;;17.46;60.86;102245.39;2300278;77;50391;-72
2023/02/04 04:01:43;;;;;;;;;;;;;;;17.54;60.59;102258.92;2303861;76;50679;-73
2023/02/04 04:04:45;;;;;;;;;;;;;;;17.60;60.43;102270.94;2303637;76;52450;-73
2023/02/04 04:07:46;;;;;;;;;;;;;;;17.63;60.35;102277.36;2301953;76;51569;-72
2023/02/04 04:10:48;;;;;;;;;;;;;;;17.64;60.28;102287.91;2291193;76;51501;-72
2023/02/04 04:13:49;;;;;;;;;;;;;;;17.63;60.30;102288.91;2255313;77;51392;-72
2023/02/04 04:16:51;;;;;;;;;;;;;;;17.60;60.32;102285.16;2269658;77;49656;-72
2023/02/04 04:19:53;;;;;;;;;;;;;;;17.57;60.38;102292.14;2265366;78;50398;-72
2023/02/04 04:22:54;;;;;;;;;;;;;;;17.53;60.53;102301.41;2267802;78;50382;-72
2023/02/04 04:25:56;;;;;;;;;;;;;;;17.50;60.65;102311.05;2267326;77;50631;-72
2023/02/04 04:28:57;;;;;;;;;;;;;;;17.47;60.74;102315.34;2235202;78;50985;-72
2023/02/04 04:32:00;;;;;;;;;;;;;;;17.42;60.86;102317.58;2246426;78;50247;-72
2023/02/04 04:35:02;;;;;;;;;;;;;;;17.44;60.73;102327.63;2247259;78;50357;-72
2023/02/04 04:38:04;;;;;;;;;;;;;;;17.46;60.61;102336.38;2289953;77;50358;-72
2023/02/04 04:41:05;;;;;;;;;;;;;;;17.53;60.43;102346.06;2304746;76;51662;-72
2023/02/04 04:44:07;;;;;;;;;;;;;;;17.61;60.24;102346.23;2283771;77;51447;-72
2023/02/04 04:47:08;;;;;;;;;;;;;;;17.61;60.20;102367.65;2279224;77;51411;-73
2023/02/04 04:50:10;;;;;;;;;;;;;;;17.61;60.16;102368.98;2281226;77;51777;-71
2023/02/04 04:53:11;;;;;;;;;;;;;;;17.62;60.10;102378.70;2278336;77;50963;-71
2023/02/04 04:56:13;;;;;;;;;;;;;;;17.59;60.13;102389.18;2305311;77;50219;-71
2023/02/04 04:59:14;;;;;;;;;;;;;;;17.57;60.22;102393.84;2279871;77;50317;-71
2023/02/04 05:02:16;;;;;;;;;;;;;;;17.52;60.42;102405.44;2244192;78;50703;-71
2023/02/04 05:05:19;;;;;;;;;;;;;;;17.48;60.61;102410.69;2244412;78;51534;-71
2023/02/04 05:08:21;;;;;;;;;;;;;;;17.45;60.71;102422.16;2270927;77;50608;-72
2023/02/04 05:11:22;;;;;;;;;;;;;;;17.41;60.92;102433.60;2273346;76;50423;-72
2023/02/04 05:14:24;;;;;;;;;;;;;;;17.44;61.42;102430.66;2286359;77;50269;-72
2023/02/04 05:17:25;;;;;;;;;;;;;;;17.47;61.54;102439.78;2273320;76;50728;-72
2023/02/04 05:20:27;;;;;;;;;;;;;;;17.52;61.41;102440.70;2262578;78;52261;-72
2023/02/04 05:23:28;;;;;;;;;;;;;;;17.56;61.45;102447.50;2244600;77;51433;-72
2023/02/04 05:26:30;;;;;;;;;;;;;;;17.59;61.53;102457.44;2267002;76;51617;-72
2023/02/04 05:29:32;;;;;;;;;;;;;;;17.59;61.74;102468.14;2254328;78;52757;-71
2023/02/04 05:32:33;;;;;;;;;;;;;;;17.59;61.76;102465.47;2243473;78;50385;-71
2023/02/04 05:35:35;;;;;;;;;;;;;;;17.61;61.75;102472.88;2249595;78;50387;-71
2023/02/04 05:38:36;;;;;;;;;;;;;;;17.61;61.92;102479.58;2266756;78;51551;-72
2023/02/04 05:41:38;;;;;;;;;;;;;;;17.61;61.75;102493.45;2218237;78;51016;-72
2023/02/04 05:44:40;;;;;;;;;;;;;;;17.62;61.84;102498.69;2287323;77;51502;-73
2023/02/04 05:47:41;;;;;;;;;;;;;;;17.62;61.84;102501.83;2300965;77;50284;-72
2023/02/04 05:50:43;;;;;;;;;;;;;;;17.60;61.89;102507.34;2266943;77;51498;-72
2023/02/04 05:53:45;;;;;;;;;;;;;;;17.60;61.82;102519.38;2243281;78;50959;-74
2023/02/04 05:56:46;;;;;;;;;;;;;;;17.61;61.96;102525.58;2271917;77;50122;-73
2023/02/04 05:59:48;;;;;;;;;;;;;;;17.60;62.05;102524.73;2267126;77;51629;-74
2023/02/04 06:02:50;;;;;;;;;;;;;;;17.63;61.97;102530.31;2287810;77;51430;-74
2023/02/04 06:05:51;;;;;;;;;;;;;;;17.64;62.09;102535.52;2298944;76;51003;-74
2023/02/04 06:08:53;;;;;;;;;;;;;;;17.63;61.75;102543.20;2267040;77;50348;-75
2023/02/04 06:11:54;;;;;;;;;;;;;;;17.60;61.70;102547.48;2268687;77;50154;-74
2023/02/04 06:14:56;;;;;;;;;;;;;;;17.58;61.73;102560.64;2286763;77;49861;-74
2023/02/04 06:17:57;;;;;;;;;;;;;;;17.55;61.77;102572.45;2242655;78;52444;-74
2023/02/04 06:20:59;;;;;;;;;;;;;;;17.55;61.72;102581.83;2254220;78;51422;-75
2023/02/04 06:24:01;;;;;;;;;;;;;;;17.55;61.58;102583.16;2273548;77;50657;-75
2023/02/04 06:27:02;;;;;;;;;;;;;;;17.52;61.54;102583.43;2286116;77;51405;-75
2023/02/04 06:30:04;;;;;;;;;;;;;;;17.49;61.56;102590.35;2242185;78;52569;-74
2023/02/04 06:33:06;;;;;;;;;;;;;;;17.49;61.48;102597.05;2245561;77;50222;-74
2023/02/04 06:36:07;;;;;;;;;;;;;;;17.49;61.42;102603.73;2297095;76;50627;-74
2023/02/04 06:39:09;;;;;;;;;;;;;;;17.54;61.30;102608.21;2266918;78;51533;-74
2023/02/04 06:42:11;;;;;;;;;;;;;;;17.55;61.20;102615.28;2291870;77;51356;-75
2023/02/04 06:45:12;;;;;;;;;;;;;;;17.54;61.21;102619.41;2285165;77;51578;-74
2023/02/04 06:48:14;;;;;;;;;;;;;;;17.52;61.25;102624.04;2271423;76;51427;-72
2023/02/04 06:51:15;;;;;;;;;;;;;;;17.49;61.30;102623.80;2266889;77;50373;-74
2023/02/04 06:54:17;;;;;;;;;;;;;;;17.46;61.38;102624.06;2268598;77;51171;-72
2023/02/04 06:57:19;;;;;;;;;;;;;;;17.49;61.31;102630.50;2286909;77;50309;-73
2023/02/04 07:00:20;;;;;;;;;;;;;;;17.46;61.40;102629.91;2303560;76;50154;-73
2023/02/04 07:03:22;;;;;;;;;;;;;;;17.46;61.33;102627.23;2302170;76;51510;-73
2023/02/04 07:06:23;;;;;;;;;;;;;;;17.44;61.38;102627.84;2276318;77;51182;-74
2023/02/04 07:09:25;;;;;;;;;;;;;;;17.40;61.49;102628.60;2303737;76;50384;-74
2023/02/04 07:12:27;;;;;;;;;;;;;;;17.43;61.39;102633.69;2277183;76;50135;-73
2023/02/04 07:15:29;;;;;;;;;;;;;;;17.46;61.21;102630.76;2286733;77;50426;-73
2023/02/04 07:18:31;;;;;;;;;;;;;;;17.54;60.98;102632.30;2267145;77;51502;-73
2023/02/04 07:21:33;;;;;;;;;;;;;;;17.59;60.75;102631.43;2277438;77;52343;-72
2023/02/04 07:24:34;;;;;;;;;;;;;;;17.57;60.79;102646.80;2303522;76;52599;-74
2023/02/04 07:27:36;;;;;;;;;;;;;;;17.54;60.81;102644.34;2275721;77;50622;-73
2023/02/04 07:30:37;;;;;;;;;;;;;;;17.51;60.94;102649.96;2266893;78;50259;-74
2023/02/04 07:33:39;;;;;;;;;;;;;;;17.50;60.98;102655.45;2291337;77;50059;-71
2023/02/04 07:36:40;;;;;;;;;;;;;;;17.47;61.17;102665.93;2247874;78;51655;-72
2023/02/04 07:39:42;;;;;;;;;;;;;;;17.48;61.11;102670.79;2267279;78;50695;-72
2023/02/04 07:42:44;;;;;;;;;;;;;;;17.45;61.19;102683.94;2283187;77;50636;-71
2023/02/04 07:45:45;;;;;;;;;;;;;;;17.44;61.25;102683.55;2260489;77;52690;-72
2023/02/04 07:48:48;;;;;;;;;;;;;;;17.48;61.26;102693.05;2267213;78;51427;-72
2023/02/04 07:51:50;;;;;;;;;;;;;;;17.58;61.08;102695.82;2267848;77;50664;-72
2023/02/04 07:54:51;;;;;;;;;;;;;;;17.68;60.31;102699.44;2229325;78;51404;-72
2023/02/04 07:57:53;;;;;;;;;;;;;;;17.79;59.90;102706.58;2223063;79;52280;-74
2023/02/04 08:00:55;;;;;;;;;;;;;;;17.84;59.61;102713.77;2231010;78;51556;-74
2023/02/04 08:03:56;;;;;;;;;;;;;;;17.85;59.55;102718.14;2285698;77;51454;-73
2023/02/04 08:06:58;;;;;;;;;;;;;;;17.87;59.55;102727.39;2275052;77;50498;-73
2023/02/04 08:09:59;;;;;;;;;;;;;;;17.85;59.59;102735.55;2239567;78;49366;-74
2023/02/04 08:13:02;;;;;;;;;;;;;;;17.81;59.65;102742.99;2240731;78;51469;-74
2023/02/04 08:16:04;;;;;;;;;;;;;;;17.80;59.69;102742.64;2268357;77;51533;-74
2023/02/04 08:19:06;;;;;;;;;;;;;;;17.77;59.77;102755.38;2295778;77;50299;-74
2023/02/04 08:22:07;;;;;;;;;;;;;;;17.73;59.90;102756.63;2295542;77;51196;-75
2023/02/04 08:25:10;;;;;;;;;;;;;;;17.67;60.08;102753.09;2265919;77;50281;-75
2023/02/04 08:28:12;;;;;;;;;;;;;;;17.64;60.21;102763.57;2263724;78;50496;-75
2023/02/04 08:31:13;;;;;;;;;;;;;;;17.72;60.02;102767.80;2263820;78;51466;-74
2023/02/04 08:34:15;;;;;;;;;;;;;;;17.78;59.82;102777.19;2241042;78;51723;-75
2023/02/04 08:37:16;;;;;;;;;;;;;;;17.86;59.63;102784.12;2252482;78;51547;-74
2023/02/04 08:40:18;;;;;;;;;;;;;;;17.83;59.67;102773.67;2239016;78;51594;-72
2023/02/04 08:43:20;;;;;;;;;;;;;;;17.80;59.74;102777.92;2214461;78;51502;-72
2023/02/04 08:46:21;;;;;;;;;;;;;;;17.75;59.84;102781.42;2239647;78;49792;-73
2023/02/04 08:49:23;;;;;;;;;;;;;;;17.69;60.03;102789.48;2284485;77;50410;-73
2023/02/04 08:52:24;;;;;;;;;;;;;;;17.62;60.21;102783.80;2246902;78;51575;-73
2023/02/04 08:55:26;;;;;;;;;;;;;;;17.56;60.40;102786.95;2259783;78;50704;-73
2023/02/04 08:58:28;;;;;;;;;;;;;;;17.55;60.61;102797.30;2237007;79;51015;-73
2023/02/04 09:01:31;;;;;;;;;;;;;;;17.53;60.62;102795.23;2258207;79;50015;-74
2023/02/04 09:04:32;;;;;;;;;;;;;;;17.54;60.53;102801.42;2258979;77;50731;-73
2023/02/04 09:07:34;;;;;;;;;;;;;;;17.60;60.37;102805.81;2272498;77;50415;-73
2023/02/04 09:10:35;;;;;;;;;;;;;;;17.73;59.97;102806.16;2238864;78;51221;-73
2023/02/04 09:13:38;;;;;;;;;;;;;;;17.82;59.69;102810.29;2244833;78;50629;-74
2023/02/04 09:16:39;;;;;;;;;;;;;;;17.81;59.72;102818.47;2258191;77;51540;-73
2023/02/04 09:19:41;;;;;;;;;;;;;;;17.81;59.70;102819.31;2277494;77;51744;-73
2023/02/04 09:22:42;;;;;;;;;;;;;;;17.79;59.73;102825.73;2245687;78;49502;-73
2023/02/04 09:25:44;;;;;;;;;;;;;;;17.78;59.80;102824.89;2260006;77;50270;-74
2023/02/04 09:28:47;;;;;;;;;;;;;;;17.75;59.81;102840.34;2271103;77;50671;-73
2023/02/04 09:31:49;;;;;;;;;;;;;;;17.68;59.99;102840.00;2258972;78;51489;-73
2023/02/04 09:34:50;;;;;;;;;;;;;;;17.61;60.18;102846.32;2230768;78;52402;-73
2023/02/04 09:37:52;;;;;;;;;;;;;;;17.56;60.42;102857.88;2251398;78;53533;-73
2023/02/04 09:40:54;;;;;;;;;;;;;;;17.55;60.51;102861.55;2259003;78;50617;-73
2023/02/04 09:43:56;;;;;;;;;;;;;;;17.56;60.39;102860.56;2258662;78;51466;-74
2023/02/04 09:46:58;;;;;;;;;;;;;;;17.57;60.29;102870.31;2242322;77;52570;-73
2023/02/04 09:49:59;;;;;;;;;;;;;;;17.70;59.95;102871.98;2258896;78;50638;-73
2023/02/04 09:53:01;;;;;;;;;;;;;;;17.77;59.74;102878.06;2264130;77;51436;-73
2023/02/04 09:56:03;;;;;;;;;;;;;;;17.81;59.59;102885.42;2279119;77;50414;-72
2023/02/04 09:59:12;;;;;;;;;;;;;;;17.78;59.65;102881.63;2245083;78;52373;-73
2023/02/04 10:02:16;;;;;;;;;;;;;;;17.76;59.68;102879.05;2249379;78;50789;-74
2023/02/04 10:05:18;;;;;;;;;;;;;;;17.76;59.71;102883.56;2231873;79;50691;-75
2023/02/04 10:08:21;;;;;;;;;;;;;;;17.71;59.80;102889.28;2243549;77;50462;-73
2023/02/04 10:11:23;;;;;;;;;;;;;;;17.63;59.99;102889.05;2275559;77;49668;-73
2023/02/04 10:14:24;;;;;;;;;;;;;;;17.59;60.17;102892.92;2278403;77;51552;-74
2023/02/04 10:17:26;;;;;;;;;;;;;;;17.52;60.46;102892.58;2276964;77;50373;-73
2023/02/04 10:20:28;;;;;;;;;;;;;;;17.50;60.43;102890.50;2259032;77;51513;-73
2023/02/04 10:23:29;;;;;;;;;;;;;;;17.53;60.29;102895.61;2223597;78;51857;-73
2023/02/04 10:26:31;;;;;;;;;;;;;;;17.60;60.16;102887.95;2297201;77;51627;-74
2023/02/04 10:29:33;;;;;;;;;;;;;;;17.70;59.76;102892.95;2279424;77;51456;-73
2023/02/04 10:32:34;;;;;;;;;;;;;;;17.77;59.56;102894.13;2262517;78;51510;-72
2023/02/04 10:35:37;;;;;;;;;;;;;;;17.79;59.50;102894.90;2205452;78;51792;-73
2023/02/04 10:38:39;;;;;;;;;;;;;;;17.77;59.57;102906.67;2258137;78;51473;-73
2023/02/04 10:41:44;;;;;;;;;;;;;;;17.76;59.60;102903.64;2259019;78;50625;-73
2023/02/04 10:44:46;;;;;;;;;;;;;;;17.71;59.70;102903.16;2259408;77;50362;-73
2023/02/04 10:47:50;;;;;;;;;;;;;;;17.72;59.68;102903.52;2261314;78;50983;-72
2023/02/04 10:50:51;;;;;;;;;;;;;;;17.70;59.71;102901.44;2261349;78;51447;-72
2023/02/04 10:57:28;;;;;;;;;;;;;;;17.59;60.15;102908.98;2268517;77;22749;-73
2023/02/04 11:00:30;;;;;;;;;;;;;;;17.53;60.16;102906.31;2260536;77;50406;-73
2023/02/04 11:03:31;;;;;;;;;;;;;;;17.59;60.03;102911.66;2258893;78;51496;-73
2023/02/04 11:06:33;;;;;;;;;;;;;;;17.67;59.72;102907.89;2275363;77;51438;-72
2023/02/04 11:09:35;;;;;;;;;;;;;;;17.76;59.51;102913.02;2290585;77;50408;-72
2023/02/04 11:12:44;;;;;;;;;;;;;;;17.77;59.47;102910.69;2266441;77;52347;-75
2023/02/04 11:15:46;;;;;;;;;;;;;;;17.76;59.48;102913.02;2258876;78;51543;-74
2023/02/04 11:18:51;;;;;;;;;;;;;;;17.76;59.51;102913.02;2290000;77;50423;-73
2023/02/04 11:21:53;;;;;;;;;;;;;;;17.75;59.61;102916.19;2290347;77;51546;-75
2023/02/04 11:24:54;;;;;;;;;;;;;;;17.73;59.73;102918.13;2269352;77;51026;-73
2023/02/04 11:27:56;;;;;;;;;;;;;;;17.77;59.67;102914.22;2274215;77;50812;-73
2023/02/04 11:31:01;;;;;;;;;;;;;;;17.70;59.92;102921.52;2258939;78;50409;-74
2023/02/04 11:34:13;;;;;;;;;;;;;;;17.61;60.17;102930.65;2258765;78;50279;-74
2023/02/04 11:37:15;;;;;;;;;;;;;;;17.58;60.31;102928.22;2144412;77;51135;-75
2023/02/04 11:40:25;;;;;;;;;;;;;;;17.56;60.45;102938.68;2261780;78;50885;-76
2023/02/04 11:43:26;;;;;;;;;;;;;;;17.68;60.19;102946.25;2238400;78;51295;-74
2023/02/04 11:46:28;;;;;;;;;;;;;;;17.77;59.94;102952.20;2258949;78;50361;-75
2023/02/04 11:49:29;;;;;;;;;;;;;;;17.77;59.91;102950.86;2282361;77;49590;-75
2023/02/04 11:52:33;;;;;;;;;;;;;;;17.77;59.90;102949.52;2280810;77;50279;-73
2023/02/04 11:55:35;;;;;;;;;;;;;;;17.75;59.95;102953.68;2287890;77;50450;-74
2023/02/04 11:58:38;;;;;;;;;;;;;;;17.77;59.84;102949.03;2261272;77;52406;-74
2023/02/04 12:01:39;;;;;;;;;;;;;;;17.73;59.90;102951.60;2200736;78;51673;-76
2023/02/04 12:04:43;;;;;;;;;;;;;;;17.64;60.10;102957.17;2258749;78;50212;-75
2023/02/04 12:07:44;;;;;;;;;;;;;;;17.58;60.21;102952.31;2257672;78;50326;-74
2023/02/04 12:10:49;;;;;;;;;;;;;;;17.56;60.33;102948.90;2285990;77;51548;-73
2023/02/04 12:13:52;;;;;;;;;;;;;;;17.53;60.43;102948.30;2288131;77;52388;-74
2023/02/04 12:16:55;;;;;;;;;;;;;;;17.51;60.42;102947.06;2283265;77;50782;-74
2023/02/04 12:19:58;;;;;;;;;;;;;;;17.54;60.43;102945.48;2272081;77;51563;-74
2023/02/04 12:22:59;;;;;;;;;;;;;;;17.67;60.07;102947.20;2261237;78;51500;-73
2023/02/04 12:26:01;;;;;;;;;;;;;;;17.75;59.77;102945.64;2261560;78;53440;-72
2023/02/04 12:29:04;;;;;;;;;;;;;;;17.78;59.71;102951.24;2245932;77;50090;-73
2023/02/04 12:32:06;;;;;;;;;;;;;;;17.76;59.70;102957.20;2262388;78;52459;-74
2023/02/04 12:35:07;;;;;;;;;;;;;;;17.77;59.69;102964.25;2241597;78;50113;-72
2023/02/04 12:38:09;;;;;;;;;;;;;;;17.76;59.68;102966.57;2241668;78;50996;-72
2023/02/04 12:41:11;;;;;;;;;;;;;;;17.73;59.69;102967.67;2244364;77;52169;-73
2023/02/04 12:44:14;;;;;;;;;;;;;;;17.68;59.75;102975.70;2269307;77;50438;-72
2023/02/04 12:47:15;;;;;;;;;;;;;;;17.63;59.92;102980.07;2258973;78;50703;-73
2023/02/04 12:50:24;;;;;;;;;;;;;;;17.56;60.16;102974.82;2251211;78;52335;-72
2023/02/04 12:53:26;;;;;;;;;;;;;;;17.54;60.23;102976.27;2256958;79;51569;-73
2023/02/04 12:56:28;;;;;;;;;;;;;;;17.51;60.21;102969.81;2257260;79;51523;-72
2023/02/04 12:59:30;;;;;;;;;;;;;;;17.60;59.99;102977.14;2259981;77;50775;-74
2023/02/04 13:02:31;;;;;;;;;;;;;;;17.70;59.71;102976.41;2242780;78;51694;-73
2023/02/04 13:05:34;;;;;;;;;;;;;;;17.76;59.56;102985.31;2262600;78;51399;-73
2023/02/04 13:08:36;;;;;;;;;;;;;;;17.75;59.50;102982.25;2238452;78;49923;-75
2023/02/04 13:11:37;;;;;;;;;;;;;;;17.73;59.53;102986.41;2265980;78;50416;-75
2023/02/04 13:14:40;;;;;;;;;;;;;;;17.70;59.54;102985.78;2254075;77;51391;-74
2023/02/04 13:17:41;;;;;;;;;;;;;;;17.65;59.69;102986.16;2283410;77;50572;-75
2023/02/04 13:20:44;;;;;;;;;;;;;;;17.63;59.70;102988.10;2278001;77;50699;-75
2023/02/04 13:23:46;;;;;;;;;;;;;;;17.62;59.71;102981.91;2290402;77;51540;-73
2023/02/04 13:26:48;;;;;;;;;;;;;;;17.54;59.93;102982.95;2304090;76;52362;-73
2023/02/04 13:29:49;;;;;;;;;;;;;;;17.51;60.08;102994.40;2288099;76;51418;-74
2023/02/04 13:32:51;;;;;;;;;;;;;;;17.51;60.01;102992.57;2243763;78;50215;-74
2023/02/04 13:35:52;;;;;;;;;;;;;;;17.57;59.89;103000.14;2267023;78;51522;-73
2023/02/04 13:38:54;;;;;;;;;;;;;;;17.63;59.73;103003.67;2243799;77;50656;-73
2023/02/04 13:41:56;;;;;;;;;;;;;;;17.71;59.56;103003.08;2267150;78;50395;-73
2023/02/04 13:44:57;;;;;;;;;;;;;;;17.78;59.40;103012.34;2267431;77;51424;-73
2023/02/04 13:47:59;;;;;;;;;;;;;;;17.75;59.38;103001.00;2266911;78;51542;-74
2023/02/04 13:51:00;;;;;;;;;;;;;;;17.73;59.48;103004.31;2273004;77;52502;-74
2023/02/04 13:54:02;;;;;;;;;;;;;;;17.71;59.49;103009.77;2292127;76;49924;-74
2023/02/04 13:57:04;;;;;;;;;;;;;;;17.68;59.54;103005.16;2280776;77;50219;-74
2023/02/04 14:00:07;;;;;;;;;;;;;;;17.64;59.59;103012.06;2304756;77;51534;-74
2023/02/04 14:03:09;;;;;;;;;;;;;;;17.59;59.71;103012.90;2248473;78;51020;-74
2023/02/04 14:06:10;;;;;;;;;;;;;;;17.59;59.74;103012.90;2243484;78;53563;-74
2023/02/04 14:09:12;;;;;;;;;;;;;;;17.55;59.92;103014.13;2273803;77;52022;-74
2023/02/04 14:12:14;;;;;;;;;;;;;;;17.49;60.10;103011.91;2280002;76;51433;-73
2023/02/04 14:15:15;;;;;;;;;;;;;;;17.56;60.03;103005.61;2275319;77;49807;-73
2023/02/04 14:18:17;;;;;;;;;;;;;;;17.69;59.75;103010.86;2302298;77;50273;-73
2023/02/04 14:21:19;;;;;;;;;;;;;;;17.74;59.59;103010.02;2302092;77;50419;-73
2023/02/04 14:24:20;;;;;;;;;;;;;;;17.76;59.48;103010.75;2271573;76;50667;-73
2023/02/04 14:27:22;;;;;;;;;;;;;;;17.75;59.48;103019.74;2277255;77;49591;-73
2023/02/04 14:30:24;;;;;;;;;;;;;;;17.75;59.50;103019.74;2292229;77;50709;-74
2023/02/04 14:33:26;;;;;;;;;;;;;;;17.69;59.59;103028.27;2293278;77;50262;-73
2023/02/04 14:36:27;;;;;;;;;;;;;;;17.69;59.54;103024.25;2256912;76;50366;-74
2023/02/04 14:39:29;;;;;;;;;;;;;;;17.64;59.63;103033.97;2247292;77;51228;-73
2023/02/04 14:42:30;;;;;;;;;;;;;;;17.60;59.68;103038.72;2283114;77;50773;-73
2023/02/04 14:45:32;;;;;;;;;;;;;;;17.56;59.86;103040.41;2290096;77;50702;-73
2023/02/04 14:48:34;;;;;;;;;;;;;;;17.54;59.81;103039.17;2306633;76;51838;-73
2023/02/04 14:51:35;;;;;;;;;;;;;;;17.52;59.86;103031.77;2247833;77;50197;-73
2023/02/04 14:54:37;;;;;;;;;;;;;;;17.62;59.64;103044.81;2246419;78;51421;-74
2023/02/04 14:57:38;;;;;;;;;;;;;;;17.72;59.41;103045.42;2270449;78;50663;-73
2023/02/04 15:00:40;;;;;;;;;;;;;;;17.75;59.30;103046.52;2260783;77;51544;-73
2023/02/04 15:03:42;;;;;;;;;;;;;;;17.74;59.31;103047.51;2246940;78;49245;-73
2023/02/04 15:06:44;;;;;;;;;;;;;;;17.71;59.33;103045.92;2252979;77;50262;-73
2023/02/04 15:09:47;;;;;;;;;;;;;;;17.72;59.36;103061.00;2269164;77;50770;-75
2023/02/04 15:12:48;;;;;;;;;;;;;;;17.67;59.49;103062.33;2259290;77;50512;-74
2023/02/04 15:15:50;;;;;;;;;;;;;;;17.60;60.06;103074.86;2273243;77;50080;-76
2023/02/04 15:18:51;;;;;;;;;;;;;;;17.57;60.58;103068.41;2275584;77;51627;-75
2023/02/04 15:21:53;;;;;;;;;;;;;;;17.57;60.72;103064.39;2294360;77;51578;-74
2023/02/04 15:24:55;;;;;;;;;;;;;;;17.58;60.75;103064.75;2302538;77;51482;-75
2023/02/04 15:27:56;;;;;;;;;;;;;;;17.59;60.81;103077.16;2251410;77;52737;-74
2023/02/04 15:30:58;;;;;;;;;;;;;;;17.61;60.81;103072.55;2267717;77;51441;-76
2023/02/04 15:33:59;;;;;;;;;;;;;;;17.64;60.71;103083.01;2284819;76;51422;-75
2023/02/04 15:37:01;;;;;;;;;;;;;;;17.66;60.75;103078.04;2273628;77;51443;-74